sensor_id;sensor_type;location;lat;lon;timestamp;temperature;humidity
9824;DHT22;4951;50.778;7.196;2023-05-02T00:04:00;10.30;1.00
9824;DHT22;4951;50.778;7.196;2023-05-02T00:06:41;10.40;1.00
9824;DHT22;4951;50.778;7.196;2023-05-02T00:09:46;10.50;1.00
9824;DHT22;4951;50.778;7.196;2023-05-02T00:12:59;10.60;1.00
9824;DHT22;4951;50.778;7.196;2023-05-02T00:16:08;10.60;1.00
9824;DHT22;4951;50.778;7.196;2023-05-02T00:18:36;10.70;1.00
9824;DHT22;4951;50.778;7.196;2023-05-02T00:21:09;10.70;1.00
9824;DHT22;4951;50.778;7.196;2023-05-02T00:23:53;10.80;1.00
9824;DHT22;4951;50.778;7.196;2023-05-02T00:27:00;10.80;1.00
9824;DHT22;4951;50.778;7.196;2023-05-02T00:30:01;10.80;1.00
9824;DHT22;4951;50.778;7.196;2023-05-02T00:32:56;10.90;1.00
9824;DHT22;4951;50.778;7.196;2023-05-02T00:35:40;10.90;1.00
9824;DHT22;4951;50.778;7.196;2023-05-02T00:38:54;10.90;1.00
9824;DHT22;4951;50.778;7.196;2023-05-02T00:42:27;10.90;1.00
9824;DHT22;4951;50.778;7.196;2023-05-02T00:45:14;10.90;1.00
9824;DHT22;4951;50.778;7.196;2023-05-02T00:47:52;10.90;1.00
9824;DHT22;4951;50.778;7.196;2023-05-02T00:50:26;10.90;1.00
9824;DHT22;4951;50.778;7.196;2023-05-02T00:53:39;10.80;1.00
9824;DHT22;4951;50.778;7.196;2023-05-02T00:56:10;10.70;1.00
9824;DHT22;4951;50.778;7.196;2023-05-02T00:58:39;10.60;1.00
9824;DHT22;4951;50.778;7.196;2023-05-02T01:01:35;10.60;1.00
9824;DHT22;4951;50.778;7.196;2023-05-02T01:04:14;10.60;1.00
9824;DHT22;4951;50.778;7.196;2023-05-02T01:07:01;10.60;1.00
9824;DHT22;4951;50.778;7.196;2023-05-02T01:09:46;10.70;1.00
9824;DHT22;4951;50.778;7.196;2023-05-02T01:12:41;10.70;1.00
9824;DHT22;4951;50.778;7.196;2023-05-02T01:15:39;10.80;1.00
9824;DHT22;4951;50.778;7.196;2023-05-02T01:18:31;10.80;1.00
9824;DHT22;4951;50.778;7.196;2023-05-02T01:21:03;10.90;1.00
9824;DHT22;4951;50.778;7.196;2023-05-02T01:24:02;10.90;1.00
9824;DHT22;4951;50.778;7.196;2023-05-02T01:27:10;11.00;1.00
9824;DHT22;4951;50.778;7.196;2023-05-02T01:30:01;11.00;1.00
9824;DHT22;4951;50.778;7.196;2023-05-02T01:32:39;11.00;1.00
9824;DHT22;4951;50.778;7.196;2023-05-02T01:35:32;11.10;1.00
9824;DHT22;4951;50.778;7.196;2023-05-02T01:38:02;11.10;1.00
9824;DHT22;4951;50.778;7.196;2023-05-02T01:40:36;11.10;1.00
9824;DHT22;4951;50.778;7.196;2023-05-02T01:43:09;11.20;1.00
9824;DHT22;4951;50.778;7.196;2023-05-02T01:49:32;11.20;1.00
9824;DHT22;4951;50.778;7.196;2023-05-02T01:52:04;11.20;1.00
9824;DHT22;4951;50.778;7.196;2023-05-02T01:54:58;11.20;1.00
9824;DHT22;4951;50.778;7.196;2023-05-02T01:57:52;11.10;1.00
9824;DHT22;4951;50.778;7.196;2023-05-02T02:00:26;11.10;1.00
9824;DHT22;4951;50.778;7.196;2023-05-02T02:03:17;11.10;1.00
9824;DHT22;4951;50.778;7.196;2023-05-02T02:05:48;11.10;1.00
9824;DHT22;4951;50.778;7.196;2023-05-02T02:08:20;11.10;1.00
9824;DHT22;4951;50.778;7.196;2023-05-02T02:11:33;11.10;1.00
9824;DHT22;4951;50.778;7.196;2023-05-02T02:14:10;11.10;1.00
9824;DHT22;4951;50.778;7.196;2023-05-02T02:17:25;11.10;1.00
9824;DHT22;4951;50.778;7.196;2023-05-02T02:20:22;11.10;1.00
9824;DHT22;4951;50.778;7.196;2023-05-02T02:22:51;11.00;1.00
9824;DHT22;4951;50.778;7.196;2023-05-02T02:25:19;11.00;1.00
9824;DHT22;4951;50.778;7.196;2023-05-02T02:27:47;10.90;1.00
9824;DHT22;4951;50.778;7.196;2023-05-02T02:30:14;10.90;1.00
9824;DHT22;4951;50.778;7.196;2023-05-02T02:32:42;10.90;1.00
9824;DHT22;4951;50.778;7.196;2023-05-02T02:35:10;10.80;1.00
9824;DHT22;4951;50.778;7.196;2023-05-02T02:37:46;10.80;1.00
9824;DHT22;4951;50.778;7.196;2023-05-02T02:40:20;10.90;1.00
9824;DHT22;4951;50.778;7.196;2023-05-02T02:42:54;10.80;1.00
9824;DHT22;4951;50.778;7.196;2023-05-02T02:45:32;10.80;1.00
9824;DHT22;4951;50.778;7.196;2023-05-02T02:48:09;10.80;1.00
9824;DHT22;4951;50.778;7.196;2023-05-02T02:50:46;10.90;1.00
9824;DHT22;4951;50.778;7.196;2023-05-02T02:53:22;10.80;1.00
9824;DHT22;4951;50.778;7.196;2023-05-02T02:55:56;10.90;1.00
9824;DHT22;4951;50.778;7.196;2023-05-02T02:58:30;10.80;1.00
9824;DHT22;4951;50.778;7.196;2023-05-02T03:01:03;10.80;1.00
9824;DHT22;4951;50.778;7.196;2023-05-02T03:03:32;10.80;1.00
9824;DHT22;4951;50.778;7.196;2023-05-02T03:06:03;10.80;1.00
9824;DHT22;4951;50.778;7.196;2023-05-02T03:08:39;10.80;1.00
9824;DHT22;4951;50.778;7.196;2023-05-02T03:11:09;10.80;1.00
9824;DHT22;4951;50.778;7.196;2023-05-02T03:13:37;10.80;1.00
9824;DHT22;4951;50.778;7.196;2023-05-02T03:16:28;10.80;1.00
9824;DHT22;4951;50.778;7.196;2023-05-02T03:18:57;10.80;1.00
9824;DHT22;4951;50.778;7.196;2023-05-02T03:21:24;10.80;1.00
9824;DHT22;4951;50.778;7.196;2023-05-02T03:23:54;10.80;1.00
9824;DHT22;4951;50.778;7.196;2023-05-02T03:26:22;10.80;1.00
9824;DHT22;4951;50.778;7.196;2023-05-02T03:28:49;10.80;1.00
9824;DHT22;4951;50.778;7.196;2023-05-02T03:31:22;10.80;1.00
9824;DHT22;4951;50.778;7.196;2023-05-02T03:33:50;10.80;1.00
9824;DHT22;4951;50.778;7.196;2023-05-02T03:36:18;10.70;1.00
9824;DHT22;4951;50.778;7.196;2023-05-02T03:38:45;10.70;1.00
9824;DHT22;4951;50.778;7.196;2023-05-02T03:41:14;10.70;1.00
9824;DHT22;4951;50.778;7.196;2023-05-02T03:43:43;10.70;1.00
9824;DHT22;4951;50.778;7.196;2023-05-02T03:46:11;10.70;1.00
9824;DHT22;4951;50.778;7.196;2023-05-02T03:48:42;10.70;1.00
9824;DHT22;4951;50.778;7.196;2023-05-02T03:51:11;10.70;1.00
9824;DHT22;4951;50.778;7.196;2023-05-02T03:53:42;10.70;1.00
9824;DHT22;4951;50.778;7.196;2023-05-02T03:56:10;10.70;1.00
9824;DHT22;4951;50.778;7.196;2023-05-02T03:58:48;10.70;1.00
9824;DHT22;4951;50.778;7.196;2023-05-02T04:01:20;10.70;1.00
9824;DHT22;4951;50.778;7.196;2023-05-02T04:03:50;10.70;1.00
9824;DHT22;4951;50.778;7.196;2023-05-02T04:06:20;10.70;1.00
9824;DHT22;4951;50.778;7.196;2023-05-02T04:08:53;10.70;1.00
9824;DHT22;4951;50.778;7.196;2023-05-02T04:11:21;10.70;1.00
9824;DHT22;4951;50.778;7.196;2023-05-02T04:13:51;10.70;1.00
9824;DHT22;4951;50.778;7.196;2023-05-02T04:16:18;10.80;1.00
9824;DHT22;4951;50.778;7.196;2023-05-02T04:18:46;10.70;1.00
9824;DHT22;4951;50.778;7.196;2023-05-02T04:21:13;10.70;1.00
9824;DHT22;4951;50.778;7.196;2023-05-02T04:23:41;10.80;1.00
9824;DHT22;4951;50.778;7.196;2023-05-02T04:26:09;10.70;1.00
9824;DHT22;4951;50.778;7.196;2023-05-02T04:28:43;10.70;1.00
9824;DHT22;4951;50.778;7.196;2023-05-02T04:31:15;10.80;1.00
9824;DHT22;4951;50.778;7.196;2023-05-02T04:33:45;10.70;1.00
9824;DHT22;4951;50.778;7.196;2023-05-02T04:36:17;10.80;1.00
9824;DHT22;4951;50.778;7.196;2023-05-02T04:38:46;10.80;1.00
9824;DHT22;4951;50.778;7.196;2023-05-02T04:41:16;10.80;1.00
9824;DHT22;4951;50.778;7.196;2023-05-02T04:43:50;10.80;1.00
9824;DHT22;4951;50.778;7.196;2023-05-02T04:46:24;10.80;1.00
9824;DHT22;4951;50.778;7.196;2023-05-02T04:48:55;10.80;1.00
9824;DHT22;4951;50.778;7.196;2023-05-02T04:51:32;10.80;1.00
9824;DHT22;4951;50.778;7.196;2023-05-02T04:54:25;10.80;1.00
9824;DHT22;4951;50.778;7.196;2023-05-02T04:56:53;10.80;1.00
9824;DHT22;4951;50.778;7.196;2023-05-02T04:59:29;10.80;1.00
9824;DHT22;4951;50.778;7.196;2023-05-02T05:02:09;10.80;1.00
9824;DHT22;4951;50.778;7.196;2023-05-02T05:04:40;10.80;1.00
9824;DHT22;4951;50.778;7.196;2023-05-02T05:07:09;10.80;1.00
9824;DHT22;4951;50.778;7.196;2023-05-02T05:09:49;10.80;1.00
9824;DHT22;4951;50.778;7.196;2023-05-02T05:12:32;10.90;1.00
9824;DHT22;4951;50.778;7.196;2023-05-02T05:15:04;10.80;1.00
9824;DHT22;4951;50.778;7.196;2023-05-02T05:17:37;10.80;1.00
9824;DHT22;4951;50.778;7.196;2023-05-02T05:20:06;10.80;1.00
9824;DHT22;4951;50.778;7.196;2023-05-02T05:22:40;10.80;1.00
9824;DHT22;4951;50.778;7.196;2023-05-02T05:25:17;10.80;1.00
9824;DHT22;4951;50.778;7.196;2023-05-02T05:27:49;10.80;1.00
9824;DHT22;4951;50.778;7.196;2023-05-02T05:30:25;10.80;1.00
9824;DHT22;4951;50.778;7.196;2023-05-02T05:33:04;10.90;1.00
9824;DHT22;4951;50.778;7.196;2023-05-02T05:35:33;10.90;1.00
9824;DHT22;4951;50.778;7.196;2023-05-02T05:38:11;10.90;1.00
9824;DHT22;4951;50.778;7.196;2023-05-02T05:40:42;10.90;1.00
9824;DHT22;4951;50.778;7.196;2023-05-02T05:43:17;11.00;1.00
9824;DHT22;4951;50.778;7.196;2023-05-02T05:45:50;11.00;1.00
9824;DHT22;4951;50.778;7.196;2023-05-02T05:48:21;11.10;1.00
9824;DHT22;4951;50.778;7.196;2023-05-02T05:51:13;11.10;1.00
9824;DHT22;4951;50.778;7.196;2023-05-02T05:54:23;11.10;1.00
9824;DHT22;4951;50.778;7.196;2023-05-02T05:56:53;11.20;1.00
9824;DHT22;4951;50.778;7.196;2023-05-02T05:59:26;11.10;1.00
9824;DHT22;4951;50.778;7.196;2023-05-02T06:01:56;11.10;1.00
9824;DHT22;4951;50.778;7.196;2023-05-02T06:04:35;11.10;1.00
9824;DHT22;4951;50.778;7.196;2023-05-02T06:07:27;11.10;1.00
9824;DHT22;4951;50.778;7.196;2023-05-02T06:10:11;11.10;1.00
9824;DHT22;4951;50.778;7.196;2023-05-02T06:12:45;11.10;1.00
9824;DHT22;4951;50.778;7.196;2023-05-02T06:15:20;11.10;1.00
9824;DHT22;4951;50.778;7.196;2023-05-02T06:18:16;11.10;1.00
9824;DHT22;4951;50.778;7.196;2023-05-02T06:20:47;11.00;1.00
9824;DHT22;4951;50.778;7.196;2023-05-02T06:23:22;11.00;1.00
9824;DHT22;4951;50.778;7.196;2023-05-02T06:25:50;11.00;1.00
9824;DHT22;4951;50.778;7.196;2023-05-02T06:28:18;10.90;1.00
9824;DHT22;4951;50.778;7.196;2023-05-02T06:31:18;10.90;1.00
9824;DHT22;4951;50.778;7.196;2023-05-02T06:33:52;10.90;1.00
9824;DHT22;4951;50.778;7.196;2023-05-02T06:36:24;10.90;1.00
9824;DHT22;4951;50.778;7.196;2023-05-02T06:38:56;10.90;1.00
9824;DHT22;4951;50.778;7.196;2023-05-02T06:41:50;11.00;1.00
9824;DHT22;4951;50.778;7.196;2023-05-02T06:44:45;11.00;1.00
9824;DHT22;4951;50.778;7.196;2023-05-02T06:47:48;11.10;1.00
9824;DHT22;4951;50.778;7.196;2023-05-02T06:50:19;11.20;1.00
9824;DHT22;4951;50.778;7.196;2023-05-02T06:52:50;11.20;1.00
9824;DHT22;4951;50.778;7.196;2023-05-02T06:55:22;11.30;1.00
9824;DHT22;4951;50.778;7.196;2023-05-02T07:01:45;11.40;1.00
9824;DHT22;4951;50.778;7.196;2023-05-02T07:04:14;11.50;1.00
9824;DHT22;4951;50.778;7.196;2023-05-02T07:06:46;11.60;1.00
9824;DHT22;4951;50.778;7.196;2023-05-02T07:19:37;11.90;1.00
9824;DHT22;4951;50.778;7.196;2023-05-02T07:22:42;11.90;1.00
9824;DHT22;4951;50.778;7.196;2023-05-02T07:29:27;11.80;1.00
9824;DHT22;4951;50.778;7.196;2023-05-02T07:32:00;11.70;1.00
9824;DHT22;4951;50.778;7.196;2023-05-02T07:38:59;11.40;1.00
9824;DHT22;4951;50.778;7.196;2023-05-02T07:42:07;11.20;1.00
9824;DHT22;4951;50.778;7.196;2023-05-02T07:44:58;11.10;1.00
9824;DHT22;4951;50.778;7.196;2023-05-02T07:48:35;11.10;1.00
9824;DHT22;4951;50.778;7.196;2023-05-02T07:54:53;11.10;1.00
9824;DHT22;4951;50.778;7.196;2023-05-02T07:57:55;11.20;1.00
9824;DHT22;4951;50.778;7.196;2023-05-02T08:00:37;11.30;1.00
9824;DHT22;4951;50.778;7.196;2023-05-02T08:03:23;11.40;1.00
9824;DHT22;4951;50.778;7.196;2023-05-02T08:06:10;11.60;1.00
9824;DHT22;4951;50.778;7.196;2023-05-02T08:08:51;11.70;1.00
9824;DHT22;4951;50.778;7.196;2023-05-02T08:11:52;11.70;1.00
9824;DHT22;4951;50.778;7.196;2023-05-02T08:14:53;11.80;1.00
9824;DHT22;4951;50.778;7.196;2023-05-02T08:17:56;11.90;1.00
9824;DHT22;4951;50.778;7.196;2023-05-02T08:21:00;12.00;1.00
9824;DHT22;4951;50.778;7.196;2023-05-02T08:27:19;12.10;1.00
9824;DHT22;4951;50.778;7.196;2023-05-02T08:30:00;12.10;1.00
9824;DHT22;4951;50.778;7.196;2023-05-02T08:32:46;12.10;1.00
9824;DHT22;4951;50.778;7.196;2023-05-02T08:35:24;12.10;1.00
9824;DHT22;4951;50.778;7.196;2023-05-02T08:38:16;12.20;1.00
9824;DHT22;4951;50.778;7.196;2023-05-02T08:41:12;12.20;1.00
9824;DHT22;4951;50.778;7.196;2023-05-02T08:44:14;12.20;99.90
9824;DHT22;4951;50.778;7.196;2023-05-02T08:46:44;12.20;99.90
9824;DHT22;4951;50.778;7.196;2023-05-02T08:52:52;12.30;99.90
9824;DHT22;4951;50.778;7.196;2023-05-02T08:55:30;12.40;1.00
9824;DHT22;4951;50.778;7.196;2023-05-02T08:58:33;12.30;1.00
9824;DHT22;4951;50.778;7.196;2023-05-02T09:01:22;12.30;1.00
9824;DHT22;4951;50.778;7.196;2023-05-02T09:03:54;12.40;1.00
9824;DHT22;4951;50.778;7.196;2023-05-02T09:07:09;12.40;99.90
9824;DHT22;4951;50.778;7.196;2023-05-02T09:14:00;12.60;1.00
9824;DHT22;4951;50.778;7.196;2023-05-02T09:17:23;12.90;99.90
9824;DHT22;4951;50.778;7.196;2023-05-02T09:21:03;13.10;99.90
9824;DHT22;4951;50.778;7.196;2023-05-02T09:23:56;13.20;1.00
9824;DHT22;4951;50.778;7.196;2023-05-02T09:30:30;13.20;99.90
9824;DHT22;4951;50.778;7.196;2023-05-02T09:33:48;13.30;1.00
9824;DHT22;4951;50.778;7.196;2023-05-02T09:40:25;13.10;99.90
9824;DHT22;4951;50.778;7.196;2023-05-02T09:43:15;13.00;1.00
9824;DHT22;4951;50.778;7.196;2023-05-02T09:46:46;12.80;1.00
9824;DHT22;4951;50.778;7.196;2023-05-02T09:50:31;12.60;1.00
9824;DHT22;4951;50.778;7.196;2023-05-02T09:53:26;12.40;11.40
9824;DHT22;4951;50.778;7.196;2023-05-02T09:56:04;12.30;99.90
9824;DHT22;4951;50.778;7.196;2023-05-02T09:58:37;12.20;1.00
9824;DHT22;4951;50.778;7.196;2023-05-02T10:01:29;12.20;1.00
9824;DHT22;4951;50.778;7.196;2023-05-02T10:04:21;12.20;1.00
9824;DHT22;4951;50.778;7.196;2023-05-02T10:07:11;12.20;99.90
9824;DHT22;4951;50.778;7.196;2023-05-02T10:09:43;12.30;99.90
9824;DHT22;4951;50.778;7.196;2023-05-02T10:12:37;12.30;1.00
9824;DHT22;4951;50.778;7.196;2023-05-02T10:15:30;12.30;99.90
9824;DHT22;4951;50.778;7.196;2023-05-02T10:18:41;12.20;1.00
9824;DHT22;4951;50.778;7.196;2023-05-02T10:21:32;12.10;95.70
9824;DHT22;4951;50.778;7.196;2023-05-02T10:24:06;12.10;99.90
9824;DHT22;4951;50.778;7.196;2023-05-02T10:26:42;12.10;99.90
9824;DHT22;4951;50.778;7.196;2023-05-02T10:29:30;12.10;99.90
9824;DHT22;4951;50.778;7.196;2023-05-02T10:32:52;12.20;99.90
9824;DHT22;4951;50.778;7.196;2023-05-02T10:35:26;12.20;99.90
9824;DHT22;4951;50.778;7.196;2023-05-02T10:37:57;12.20;99.90
9824;DHT22;4951;50.778;7.196;2023-05-02T10:40:48;12.20;99.90
9824;DHT22;4951;50.778;7.196;2023-05-02T10:43:39;12.30;99.90
9824;DHT22;4951;50.778;7.196;2023-05-02T10:54:26;13.20;1.00
9824;DHT22;4951;50.778;7.196;2023-05-02T11:08:30;14.30;1.00
9824;DHT22;4951;50.778;7.196;2023-05-02T11:17:20;14.60;28.60
9824;DHT22;4951;50.778;7.196;2023-05-02T11:23:29;14.50;1.00
9824;DHT22;4951;50.778;7.196;2023-05-02T11:26:42;14.60;99.90
9824;DHT22;4951;50.778;7.196;2023-05-02T11:37:53;15.20;1.00
9824;DHT22;4951;50.778;7.196;2023-05-02T11:44:17;15.50;99.90
9824;DHT22;4951;50.778;7.196;2023-05-02T11:48:21;15.70;1.00
9824;DHT22;4951;50.778;7.196;2023-05-02T11:51:27;15.70;1.00
9824;DHT22;4951;50.778;7.196;2023-05-02T11:54:58;15.80;1.00
9824;DHT22;4951;50.778;7.196;2023-05-02T11:59:25;15.80;1.00
9824;DHT22;4951;50.778;7.196;2023-05-02T12:03:07;15.80;1.00
9824;DHT22;4951;50.778;7.196;2023-05-02T12:07:08;15.80;1.00
9824;DHT22;4951;50.778;7.196;2023-05-02T12:10:20;15.70;1.00
9824;DHT22;4951;50.778;7.196;2023-05-02T12:13:59;15.70;1.00
9824;DHT22;4951;50.778;7.196;2023-05-02T12:19:59;15.80;1.00
9824;DHT22;4951;50.778;7.196;2023-05-02T12:22:30;15.80;1.00
9824;DHT22;4951;50.778;7.196;2023-05-02T12:24:58;15.80;99.90
9824;DHT22;4951;50.778;7.196;2023-05-02T12:56:06;16.30;9.60
9824;DHT22;4951;50.778;7.196;2023-05-02T12:58:59;16.60;37.20
9824;DHT22;4951;50.778;7.196;2023-05-02T13:02:15;16.90;49.00
9824;DHT22;4951;50.778;7.196;2023-05-02T13:05:16;17.20;1.00
9824;DHT22;4951;50.778;7.196;2023-05-02T13:08:17;17.30;1.00
9824;DHT22;4951;50.778;7.196;2023-05-02T13:11:29;17.30;1.00
9824;DHT22;4951;50.778;7.196;2023-05-02T13:14:19;17.10;1.00
9824;DHT22;4951;50.778;7.196;2023-05-02T13:16:55;17.20;1.00
9824;DHT22;4951;50.778;7.196;2023-05-02T13:19:42;17.40;1.00
9824;DHT22;4951;50.778;7.196;2023-05-02T13:25:59;17.40;1.00
9824;DHT22;4951;50.778;7.196;2023-05-02T13:34:52;17.00;1.00
9824;DHT22;4951;50.778;7.196;2023-05-02T13:37:25;16.70;1.00
9824;DHT22;4951;50.778;7.196;2023-05-02T13:40:12;16.30;1.00
9824;DHT22;4951;50.778;7.196;2023-05-02T13:43:14;16.10;1.00
9824;DHT22;4951;50.778;7.196;2023-05-02T13:46:02;15.90;1.00
9824;DHT22;4951;50.778;7.196;2023-05-02T13:48:39;15.80;1.00
9824;DHT22;4951;50.778;7.196;2023-05-02T13:56:08;15.90;1.00
9824;DHT22;4951;50.778;7.196;2023-05-02T13:57:42;16.00;1.00
9824;DHT22;4951;50.778;7.196;2023-05-02T14:00:15;16.40;1.00
9824;DHT22;4951;50.778;7.196;2023-05-02T14:03:13;16.90;1.00
9824;DHT22;4951;50.778;7.196;2023-05-02T14:09:20;17.10;1.00
9824;DHT22;4951;50.778;7.196;2023-05-02T14:12:46;17.50;1.00
9824;DHT22;4951;50.778;7.196;2023-05-02T14:15:25;17.70;1.00
9824;DHT22;4951;50.778;7.196;2023-05-02T14:18:01;17.80;1.00
9824;DHT22;4951;50.778;7.196;2023-05-02T14:20:39;17.70;1.00
9824;DHT22;4951;50.778;7.196;2023-05-02T14:23:07;18.00;1.00
9824;DHT22;4951;50.778;7.196;2023-05-02T14:25:59;18.30;1.00
9824;DHT22;4951;50.778;7.196;2023-05-02T14:29:04;18.10;1.00
9824;DHT22;4951;50.778;7.196;2023-05-02T14:32:10;17.50;99.90
9824;DHT22;4951;50.778;7.196;2023-05-02T14:34:52;17.20;1.00
9824;DHT22;4951;50.778;7.196;2023-05-02T14:37:22;17.70;1.00
9824;DHT22;4951;50.778;7.196;2023-05-02T14:39:56;18.10;1.00
9824;DHT22;4951;50.778;7.196;2023-05-02T14:43:03;18.20;99.90
9824;DHT22;4951;50.778;7.196;2023-05-02T14:45:55;17.70;99.90
9824;DHT22;4951;50.778;7.196;2023-05-02T14:48:32;17.40;99.90
9824;DHT22;4951;50.778;7.196;2023-05-02T14:51:24;17.50;99.90
9824;DHT22;4951;50.778;7.196;2023-05-02T14:55:19;17.60;99.90
9824;DHT22;4951;50.778;7.196;2023-05-02T15:08:53;17.30;99.90
9824;DHT22;4951;50.778;7.196;2023-05-02T15:11:30;18.40;99.90
9824;DHT22;4951;50.778;7.196;2023-05-02T15:14:37;19.10;99.90
9824;DHT22;4951;50.778;7.196;2023-05-02T15:17:50;19.30;99.90
9824;DHT22;4951;50.778;7.196;2023-05-02T15:20:35;19.10;99.90
9824;DHT22;4951;50.778;7.196;2023-05-02T15:24:06;19.40;99.90
9824;DHT22;4951;50.778;7.196;2023-05-02T15:26:47;20.10;99.90
9824;DHT22;4951;50.778;7.196;2023-05-02T15:33:14;21.40;99.90
9824;DHT22;4951;50.778;7.196;2023-05-02T15:35:52;21.90;99.90
9824;DHT22;4951;50.778;7.196;2023-05-02T15:38:43;22.00;99.90
9824;DHT22;4951;50.778;7.196;2023-05-02T15:41:24;22.20;99.90
9824;DHT22;4951;50.778;7.196;2023-05-02T15:44:20;22.20;99.90
9824;DHT22;4951;50.778;7.196;2023-05-02T15:53:55;20.50;99.90
9824;DHT22;4951;50.778;7.196;2023-05-02T15:57:24;20.60;99.90
9824;DHT22;4951;50.778;7.196;2023-05-02T15:59:59;20.70;99.90
9824;DHT22;4951;50.778;7.196;2023-05-02T16:02:49;20.60;99.90
9824;DHT22;4951;50.778;7.196;2023-05-02T16:05:36;20.40;99.90
9824;DHT22;4951;50.778;7.196;2023-05-02T16:08:37;20.20;99.90
9824;DHT22;4951;50.778;7.196;2023-05-02T16:12:17;20.00;99.90
9824;DHT22;4951;50.778;7.196;2023-05-02T16:15:15;19.20;99.90
9824;DHT22;4951;50.778;7.196;2023-05-02T16:18:06;18.40;99.90
9824;DHT22;4951;50.778;7.196;2023-05-02T16:21:00;17.50;99.90
9824;DHT22;4951;50.778;7.196;2023-05-02T16:24:14;16.90;99.90
9824;DHT22;4951;50.778;7.196;2023-05-02T16:27:07;16.30;99.90
9824;DHT22;4951;50.778;7.196;2023-05-02T16:33:16;15.50;99.90
9824;DHT22;4951;50.778;7.196;2023-05-02T16:35:47;15.20;99.90
9824;DHT22;4951;50.778;7.196;2023-05-02T16:38:41;15.00;99.90
9824;DHT22;4951;50.778;7.196;2023-05-02T16:41:13;14.90;99.90
9824;DHT22;4951;50.778;7.196;2023-05-02T16:44:03;14.70;99.90
9824;DHT22;4951;50.778;7.196;2023-05-02T16:46:59;14.60;99.90
9824;DHT22;4951;50.778;7.196;2023-05-02T16:57:26;14.30;99.90
9824;DHT22;4951;50.778;7.196;2023-05-02T17:00:20;14.20;99.90
9824;DHT22;4951;50.778;7.196;2023-05-02T17:06:34;14.00;99.90
9824;DHT22;4951;50.778;7.196;2023-05-02T17:12:59;13.80;99.90
9824;DHT22;4951;50.778;7.196;2023-05-02T17:15:35;13.70;99.90
9824;DHT22;4951;50.778;7.196;2023-05-02T17:18:37;13.60;99.90
9824;DHT22;4951;50.778;7.196;2023-05-02T17:21:53;13.60;99.90
9824;DHT22;4951;50.778;7.196;2023-05-02T17:24:41;13.50;99.90
9824;DHT22;4951;50.778;7.196;2023-05-02T17:27:51;13.40;99.90
9824;DHT22;4951;50.778;7.196;2023-05-02T17:30:52;13.30;99.90
9824;DHT22;4951;50.778;7.196;2023-05-02T17:34:04;13.30;99.90
9824;DHT22;4951;50.778;7.196;2023-05-02T17:37:23;13.10;99.90
9824;DHT22;4951;50.778;7.196;2023-05-02T17:46:46;12.90;99.90
9824;DHT22;4951;50.778;7.196;2023-05-02T17:49:33;12.80;99.90
9824;DHT22;4951;50.778;7.196;2023-05-02T17:52:47;12.70;99.90
9824;DHT22;4951;50.778;7.196;2023-05-02T17:55:43;12.60;99.90
9824;DHT22;4951;50.778;7.196;2023-05-02T17:58:48;12.60;99.90
9824;DHT22;4951;50.778;7.196;2023-05-02T18:01:18;12.50;99.90
9824;DHT22;4951;50.778;7.196;2023-05-02T18:03:58;12.40;99.90
9824;DHT22;4951;50.778;7.196;2023-05-02T18:06:38;12.30;99.90
9824;DHT22;4951;50.778;7.196;2023-05-02T18:09:29;12.30;99.90
9824;DHT22;4951;50.778;7.196;2023-05-02T18:15:14;12.20;99.90
9824;DHT22;4951;50.778;7.196;2023-05-02T18:18:10;12.10;99.90
9824;DHT22;4951;50.778;7.196;2023-05-02T18:20:53;12.00;99.90
9824;DHT22;4951;50.778;7.196;2023-05-02T18:23:48;12.00;99.90
9824;DHT22;4951;50.778;7.196;2023-05-02T18:29:45;11.80;99.90
9824;DHT22;4951;50.778;7.196;2023-05-02T18:32:19;11.70;99.90
9824;DHT22;4951;50.778;7.196;2023-05-02T18:34:58;11.70;99.90
9824;DHT22;4951;50.778;7.196;2023-05-02T18:40:39;11.50;99.90
9824;DHT22;4951;50.778;7.196;2023-05-02T18:43:23;11.50;99.90
9824;DHT22;4951;50.778;7.196;2023-05-02T18:45:59;11.40;99.90
9824;DHT22;4951;50.778;7.196;2023-05-02T18:48:42;11.40;99.90
9824;DHT22;4951;50.778;7.196;2023-05-02T18:51:13;11.30;99.90
9824;DHT22;4951;50.778;7.196;2023-05-02T18:53:51;11.20;99.90
9824;DHT22;4951;50.778;7.196;2023-05-02T18:56:34;11.10;99.90
9824;DHT22;4951;50.778;7.196;2023-05-02T18:59:17;11.10;99.90
9824;DHT22;4951;50.778;7.196;2023-05-02T19:02:06;11.00;99.90
9824;DHT22;4951;50.778;7.196;2023-05-02T19:04:54;10.90;99.90
9824;DHT22;4951;50.778;7.196;2023-05-02T19:07:34;10.90;99.90
9824;DHT22;4951;50.778;7.196;2023-05-02T19:10:32;10.80;99.90
9824;DHT22;4951;50.778;7.196;2023-05-02T19:13:41;10.70;99.90
9824;DHT22;4951;50.778;7.196;2023-05-02T19:16:13;10.60;99.90
9824;DHT22;4951;50.778;7.196;2023-05-02T19:19:20;10.60;99.90
9824;DHT22;4951;50.778;7.196;2023-05-02T19:21:59;10.40;99.90
9824;DHT22;4951;50.778;7.196;2023-05-02T19:24:28;10.40;99.90
9824;DHT22;4951;50.778;7.196;2023-05-02T19:27:05;10.30;99.90
9824;DHT22;4951;50.778;7.196;2023-05-02T19:29:43;10.30;99.90
9824;DHT22;4951;50.778;7.196;2023-05-02T19:33:04;10.20;99.90
9824;DHT22;4951;50.778;7.196;2023-05-02T19:35:44;10.20;99.90
9824;DHT22;4951;50.778;7.196;2023-05-02T19:38:52;10.20;99.90
9824;DHT22;4951;50.778;7.196;2023-05-02T19:41:34;10.10;99.90
9824;DHT22;4951;50.778;7.196;2023-05-02T19:44:26;10.00;99.90
9824;DHT22;4951;50.778;7.196;2023-05-02T19:47:15;9.90;99.90
9824;DHT22;4951;50.778;7.196;2023-05-02T19:49:44;9.80;99.90
9824;DHT22;4951;50.778;7.196;2023-05-02T19:52:17;9.70;1.00
9824;DHT22;4951;50.778;7.196;2023-05-02T19:55:10;9.60;1.00
9824;DHT22;4951;50.778;7.196;2023-05-02T19:57:39;9.60;1.00
9824;DHT22;4951;50.778;7.196;2023-05-02T20:00:13;9.50;1.00
9824;DHT22;4951;50.778;7.196;2023-05-02T20:02:51;9.50;1.00
9824;DHT22;4951;50.778;7.196;2023-05-02T20:05:22;9.40;1.00
9824;DHT22;4951;50.778;7.196;2023-05-02T20:07:52;9.40;1.00
9824;DHT22;4951;50.778;7.196;2023-05-02T20:10:27;9.40;1.00
9824;DHT22;4951;50.778;7.196;2023-05-02T20:12:58;9.30;1.00
9824;DHT22;4951;50.778;7.196;2023-05-02T20:15:29;9.30;1.00
9824;DHT22;4951;50.778;7.196;2023-05-02T20:18:02;9.20;1.00
9824;DHT22;4951;50.778;7.196;2023-05-02T20:20:41;9.20;1.00
9824;DHT22;4951;50.778;7.196;2023-05-02T20:23:26;9.10;1.00
9824;DHT22;4951;50.778;7.196;2023-05-02T20:26:01;9.00;1.00
9824;DHT22;4951;50.778;7.196;2023-05-02T20:28:35;9.00;1.00
9824;DHT22;4951;50.778;7.196;2023-05-02T20:31:05;9.00;1.00
9824;DHT22;4951;50.778;7.196;2023-05-02T20:33:44;8.90;1.00
9824;DHT22;4951;50.778;7.196;2023-05-02T20:36:28;8.80;1.00
9824;DHT22;4951;50.778;7.196;2023-05-02T20:39:00;8.80;1.00
9824;DHT22;4951;50.778;7.196;2023-05-02T20:41:41;8.60;1.00
9824;DHT22;4951;50.778;7.196;2023-05-02T20:44:15;8.60;1.00
9824;DHT22;4951;50.778;7.196;2023-05-02T20:46:50;8.50;1.00
9824;DHT22;4951;50.778;7.196;2023-05-02T20:49:21;8.40;1.00
9824;DHT22;4951;50.778;7.196;2023-05-02T20:51:53;8.30;1.00
9824;DHT22;4951;50.778;7.196;2023-05-02T20:54:22;8.30;1.00
9824;DHT22;4951;50.778;7.196;2023-05-02T20:56:55;8.20;18.90
9824;DHT22;4951;50.778;7.196;2023-05-02T20:59:23;8.10;45.80
9824;DHT22;4951;50.778;7.196;2023-05-02T21:01:58;8.10;82.60
9824;DHT22;4951;50.778;7.196;2023-05-02T21:04:33;8.00;99.90
9824;DHT22;4951;50.778;7.196;2023-05-02T21:10:45;7.80;99.90
9824;DHT22;4951;50.778;7.196;2023-05-02T21:13:20;7.80;99.90
9824;DHT22;4951;50.778;7.196;2023-05-02T21:15:54;7.70;99.90
9824;DHT22;4951;50.778;7.196;2023-05-02T21:18:23;7.70;99.90
9824;DHT22;4951;50.778;7.196;2023-05-02T21:21:03;7.60;99.90
9824;DHT22;4951;50.778;7.196;2023-05-02T21:23:32;7.60;99.90
9824;DHT22;4951;50.778;7.196;2023-05-02T21:26:14;7.50;99.90
9824;DHT22;4951;50.778;7.196;2023-05-02T21:28:42;7.50;99.90
9824;DHT22;4951;50.778;7.196;2023-05-02T21:31:13;7.40;99.90
9824;DHT22;4951;50.778;7.196;2023-05-02T21:33:40;7.40;99.90